Time;durP1;ratioP1;P1;durP2;ratioP2;P2;SDS_P1;SDS_P2;PMS_P1;PMS_P2;Temp;Humidity;BMP_temperature;BMP_pressure;BME280_temperature;BME280_humidity;BME280_pressure;Samples;Min_cycle;Max_cycle;Signal;HPM_P1;HPM_P2
2022/05/01 00:00:39;;;;;;;6.63;4.75;;;10.10;99.90;;;;;;4952531;28;20047;-86
2022/05/01 00:03:06;;;;;;;6.78;4.93;;;10.10;99.90;;;;;;4904681;28;20042;-85
2022/05/01 00:05:33;;;;;;;8.48;5.80;;;10.00;99.90;;;;;;4902167;28;20468;-84
2022/05/01 00:08:00;;;;;;;5.78;3.92;;;10.00;99.90;;;;;;4932564;28;20031;-87
2022/05/01 00:10:27;;;;;;;8.02;5.50;;;10.00;99.90;;;;;;4922651;28;20039;-81
2022/05/01 00:12:59;;;;;;;6.85;4.60;;;10.00;99.90;;;;;;4935038;28;20040;-85
2022/05/01 00:15:54;;;;;;;7.60;4.72;;;10.00;99.90;;;;;;4918521;28;20054;-84
2022/05/01 00:18:21;;;;;;;8.98;4.80;;;9.90;99.90;;;;;;4884711;28;20048;-83
2022/05/01 00:20:48;;;;;;;6.75;4.65;;;10.00;99.90;;;;;;4898461;28;20039;-83
2022/05/01 00:23:15;;;;;;;6.18;5.57;;;9.90;99.90;;;;;;4932232;28;20035;-79
2022/05/01 00:25:45;;;;;;;7.32;5.43;;;10.00;99.90;;;;;;4902559;28;20035;-81
2022/05/01 00:28:15;;;;;;;6.68;5.60;;;9.90;99.90;;;;;;4904148;28;20063;-79
2022/05/01 00:30:45;;;;;;;6.75;5.60;;;9.90;99.90;;;;;;4914583;28;20031;-80
2022/05/01 00:38:47;;;;;;;8.15;5.22;;;9.90;99.90;;;;;;4932186;28;20046;-82
2022/05/01 00:41:15;;;;;;;6.25;5.07;;;9.90;99.90;;;;;;4932953;28;20031;-83
2022/05/01 00:43:57;;;;;;;7.15;5.07;;;9.90;99.90;;;;;;4899744;28;20146;-83
2022/05/01 00:46:24;;;;;;;10.13;5.80;;;9.90;99.90;;;;;;4947723;28;20043;-84
2022/05/01 00:48:52;;;;;;;5.82;4.85;;;9.80;99.90;;;;;;4928155;28;20027;-83
2022/05/01 00:51:30;;;;;;;8.43;5.57;;;9.80;99.90;;;;;;4931597;28;20043;-83
2022/05/01 00:53:58;;;;;;;5.97;4.93;;;9.80;99.90;;;;;;4903170;28;20034;-82
2022/05/01 00:56:26;;;;;;;7.72;5.85;;;9.80;99.90;;;;;;4916181;28;20487;-85
2022/05/01 00:58:57;;;;;;;9.52;5.72;;;9.80;99.90;;;;;;4948645;28;20027;-84
2022/05/01 01:01:23;;;;;;;10.30;6.55;;;9.80;99.90;;;;;;4914341;28;20031;-81
2022/05/01 01:03:54;;;;;;;7.57;5.18;;;9.80;99.90;;;;;;4916241;28;20034;-81
2022/05/01 01:06:22;;;;;;;7.45;5.97;;;9.70;99.90;;;;;;4920264;28;20036;-80
2022/05/01 01:08:49;;;;;;;8.95;6.22;;;9.80;99.90;;;;;;4935311;28;20039;-82
2022/05/01 01:11:17;;;;;;;7.47;5.95;;;9.70;99.90;;;;;;4927459;28;20035;-82
2022/05/01 01:13:46;;;;;;;7.97;6.05;;;9.70;99.90;;;;;;4930087;28;20039;-87
2022/05/01 01:16:16;;;;;;;6.93;6.07;;;9.70;99.90;;;;;;4930148;28;20027;-83
2022/05/01 01:18:43;;;;;;;6.75;5.28;;;9.70;99.90;;;;;;4901095;28;20483;-82
2022/05/01 01:21:12;;;;;;;8.43;6.68;;;9.70;99.90;;;;;;4928377;28;20039;-85
2022/05/01 01:23:40;;;;;;;7.30;6.07;;;9.70;99.90;;;;;;4926779;28;20028;-83
2022/05/01 01:26:09;;;;;;;8.70;6.07;;;9.70;99.90;;;;;;4942485;28;20039;-86
2022/05/01 01:28:39;;;;;;;6.55;5.82;;;9.70;99.90;;;;;;4916233;28;20035;-80
2022/05/01 01:31:42;;;;;;;10.60;6.82;;;9.70;99.90;;;;;;4926398;28;20027;-83
2022/05/01 01:34:12;;;;;;;8.38;6.38;;;9.70;99.90;;;;;;4927012;28;20023;-81
2022/05/01 01:36:42;;;;;;;11.43;7.03;;;9.70;99.90;;;;;;4943625;28;20495;-81
2022/05/01 01:39:10;;;;;;;11.23;7.32;;;9.70;99.90;;;;;;4944179;28;20510;-85
2022/05/01 01:41:46;;;;;;;9.07;6.88;;;9.70;99.90;;;;;;4908681;28;20475;-79
2022/05/01 01:44:13;;;;;;;10.65;7.30;;;9.70;99.90;;;;;;4910815;29;20031;-81
2022/05/01 01:46:49;;;;;;;7.10;6.03;;;9.70;99.90;;;;;;4895006;28;20034;-82
2022/05/01 01:49:16;;;;;;;11.07;6.97;;;9.60;99.90;;;;;;4925844;28;20027;-81
2022/05/01 01:51:43;;;;;;;8.52;6.97;;;9.60;99.90;;;;;;4891761;28;20031;-82
2022/05/01 01:54:10;;;;;;;8.63;6.60;;;9.60;99.90;;;;;;4916144;28;20047;-82
2022/05/01 01:56:38;;;;;;;10.48;6.65;;;9.60;99.90;;;;;;4904541;29;20066;-81
2022/05/01 01:59:19;;;;;;;8.77;6.95;;;9.60;99.90;;;;;;4896874;29;20031;-79
2022/05/01 02:01:48;;;;;;;8.10;6.05;;;9.60;99.90;;;;;;4891392;29;20480;-82
2022/05/01 02:04:28;;;;;;;8.13;6.60;;;9.50;99.90;;;;;;4911490;29;20492;-84
2022/05/01 02:06:58;;;;;;;10.20;6.20;;;9.50;99.90;;;;;;4891389;29;20043;-86
2022/05/01 02:09:24;;;;;;;9.77;6.68;;;9.50;99.90;;;;;;4892057;29;20040;-81
2022/05/01 02:12:01;;;;;;;8.70;7.00;;;9.50;99.90;;;;;;4921128;29;20039;-81
2022/05/01 02:14:33;;;;;;;11.50;7.88;;;9.50;99.90;;;;;;4909101;29;20051;-81
2022/05/01 02:17:05;;;;;;;9.93;7.57;;;9.40;99.90;;;;;;4879922;29;20035;-81
2022/05/01 02:19:36;;;;;;;9.52;7.40;;;9.40;99.90;;;;;;4926042;29;20032;-83
2022/05/01 02:22:03;;;;;;;10.90;7.23;;;9.40;99.90;;;;;;4913692;29;20047;-84
2022/05/01 02:24:31;;;;;;;9.30;7.18;;;9.40;99.90;;;;;;4895416;29;20070;-85
2022/05/01 02:26:57;;;;;;;8.80;6.88;;;9.40;99.90;;;;;;4927736;29;20046;-84
2022/05/01 02:29:24;;;;;;;10.30;7.40;;;9.40;99.90;;;;;;4880489;29;20024;-85
2022/05/01 02:31:53;;;;;;;11.82;7.05;;;9.40;99.90;;;;;;4905940;29;20027;-85
2022/05/01 02:34:22;;;;;;;9.85;7.32;;;9.30;99.90;;;;;;4904145;29;20042;-82
2022/05/01 02:36:51;;;;;;;12.57;8.18;;;9.40;99.90;;;;;;4924757;29;20034;-82
2022/05/01 02:39:18;;;;;;;8.63;7.18;;;9.30;99.90;;;;;;4911427;29;20055;-84
2022/05/01 02:41:45;;;;;;;8.98;7.32;;;9.40;99.90;;;;;;4921807;29;20711;-83
2022/05/01 02:44:11;;;;;;;11.73;7.53;;;9.30;99.90;;;;;;4897201;29;21246;-84
2022/05/01 02:46:38;;;;;;;10.27;7.85;;;9.30;99.90;;;;;;4866359;29;20388;-83
2022/05/01 02:49:05;;;;;;;8.25;7.13;;;9.30;99.90;;;;;;4899546;29;20396;-84
2022/05/01 02:51:32;;;;;;;11.85;7.85;;;9.30;99.90;;;;;;4893212;29;20040;-83
2022/05/01 02:53:59;;;;;;;9.77;8.35;;;9.30;99.90;;;;;;4894937;29;20036;-79
2022/05/01 02:56:26;;;;;;;10.68;7.88;;;9.30;99.90;;;;;;4916904;28;20038;-86
2022/05/01 02:58:52;;;;;;;10.85;7.65;;;9.30;99.90;;;;;;4913765;28;20055;-83
2022/05/01 03:01:19;;;;;;;11.68;7.45;;;9.30;99.90;;;;;;4931754;28;20046;-86
2022/05/01 03:03:45;;;;;;;9.20;6.20;;;9.30;99.90;;;;;;4929840;28;20742;-86
2022/05/01 03:06:12;;;;;;;10.82;7.13;;;9.30;99.90;;;;;;4929156;28;20406;-82
2022/05/01 03:08:41;;;;;;;9.85;6.78;;;9.20;99.90;;;;;;4930140;28;20052;-87
2022/05/01 03:11:08;;;;;;;9.65;8.02;;;9.20;99.90;;;;;;4929312;28;20415;-83
2022/05/01 03:13:34;;;;;;;11.02;8.32;;;9.20;99.90;;;;;;4934890;28;20027;-80
2022/05/01 03:16:01;;;;;;;9.90;7.95;;;9.20;99.90;;;;;;4916988;28;20039;-85
2022/05/01 03:24:06;;;;;;;8.27;7.32;;;9.10;99.90;;;;;;4903038;28;20036;-79
2022/05/01 03:26:34;;;;;;;10.75;7.82;;;9.10;99.90;;;;;;4923242;28;20031;-81
2022/05/01 03:29:05;;;;;;;8.98;6.90;;;9.10;99.90;;;;;;4948113;28;20047;-86
2022/05/01 03:31:42;;;;;;;11.50;7.97;;;9.10;99.90;;;;;;4931861;28;20031;-86
2022/05/01 03:37:12;;;;;;;11.02;8.15;;;9.10;99.90;;;;;;4948291;28;20047;-86
2022/05/01 03:39:39;;;;;;;10.27;8.05;;;9.00;99.90;;;;;;4932517;28;20048;-84
2022/05/01 03:42:07;;;;;;;10.57;7.70;;;9.00;99.90;;;;;;4905143;28;20051;-83
2022/05/01 03:44:39;;;;;;;9.98;7.55;;;9.00;99.90;;;;;;4933656;28;20541;-85
2022/05/01 03:47:11;;;;;;;9.27;6.83;;;8.90;99.90;;;;;;4939405;28;20043;-86
2022/05/01 03:49:45;;;;;;;10.10;8.15;;;9.00;99.90;;;;;;4919987;28;20042;-81
2022/05/01 03:52:12;;;;;;;11.02;7.88;;;8.90;99.90;;;;;;4920466;28;20101;-78
2022/05/01 03:54:45;;;;;;;10.73;7.57;;;9.00;99.90;;;;;;4916815;29;20043;-82
2022/05/01 03:57:13;;;;;;;8.95;7.18;;;8.90;99.90;;;;;;4935252;28;20051;-80
2022/05/01 03:59:42;;;;;;;10.05;7.80;;;9.00;99.90;;;;;;4930199;28;20049;-82
2022/05/01 04:02:15;;;;;;;9.75;7.70;;;8.90;99.90;;;;;;4929727;28;20506;-86
2022/05/01 04:04:45;;;;;;;;;;;8.90;99.90;;;;;;4935873;28;20408;-85
2022/05/01 04:07:24;;;;;;;13.45;7.22;;;8.90;99.90;;;;;;4947848;28;19914;-83
2022/05/01 04:10:06;;;;;;;8.48;6.93;;;8.90;99.90;;;;;;4931228;28;20027;-85
2022/05/01 04:12:44;;;;;;;7.93;7.10;;;8.90;99.90;;;;;;4919619;28;20035;-84
2022/05/01 04:15:17;;;;;;;10.05;7.57;;;8.90;99.90;;;;;;4934212;28;20042;-83
2022/05/01 04:17:57;;;;;;;;;;;;;;;;;;;;;
2022/05/01 04:20:32;;;;;;;11.80;8.48;;;8.90;99.90;;;;;;4924839;29;20423;-84
2022/05/01 04:22:59;;;;;;;11.57;8.10;;;8.90;99.90;;;;;;4914499;29;20042;-83
2022/05/01 04:25:29;;;;;;;9.23;8.18;;;8.90;99.90;;;;;;4915289;28;20043;-83
2022/05/01 04:27:59;;;;;;;10.63;8.60;;;8.90;99.90;;;;;;4943083;28;20503;-79
2022/05/01 04:30:26;;;;;;;12.00;8.18;;;8.90;99.90;;;;;;4944593;28;20439;-83
2022/05/01 04:32:55;;;;;;;10.73;8.02;;;8.80;99.90;;;;;;4899385;28;20038;-84
2022/05/01 04:35:28;;;;;;;7.22;6.47;;;8.80;99.90;;;;;;4914395;28;20035;-81
2022/05/01 04:37:59;;;;;;;11.07;7.53;;;8.80;99.90;;;;;;4914238;29;20027;-79
2022/05/01 04:40:30;;;;;;;9.88;7.25;;;8.80;99.90;;;;;;4894368;28;20043;-80
2022/05/01 04:43:09;;;;;;;11.35;7.50;;;8.80;99.90;;;;;;4929616;29;20074;-81
2022/05/01 04:45:41;;;;;;;10.75;7.45;;;8.80;99.90;;;;;;4900774;28;20055;-82
2022/05/01 04:48:09;;;;;;;10.38;6.97;;;8.80;99.90;;;;;;4913662;28;20044;-78
2022/05/01 04:50:36;;;;;;;8.93;6.43;;;8.80;99.90;;;;;;4924190;28;20042;-78
2022/05/01 04:53:07;;;;;;;10.13;7.75;;;8.90;99.90;;;;;;4928104;28;20030;-81
2022/05/01 04:55:41;;;;;;;11.02;7.45;;;8.80;99.90;;;;;;4899312;28;20030;-81
2022/05/01 04:58:10;;;;;;;10.65;8.65;;;8.80;99.90;;;;;;4898199;28;20055;-81
2022/05/01 05:00:38;;;;;;;9.57;6.57;;;8.90;99.90;;;;;;4908907;28;20483;-82
2022/05/01 05:03:05;;;;;;;11.38;8.15;;;8.90;99.90;;;;;;4917228;28;20047;-80
2022/05/01 05:05:32;;;;;;;13.25;9.80;;;8.90;99.90;;;;;;4913913;28;20072;-79
2022/05/01 05:10:47;;;;;;;12.65;10.13;;;8.90;99.90;;;;;;4905364;28;20035;-79
2022/05/01 05:13:14;;;;;;;13.32;9.10;;;8.90;99.90;;;;;;4907700;28;20031;-79
2022/05/01 05:15:47;;;;;;;9.48;8.27;;;8.90;99.90;;;;;;4910880;28;20039;-81
2022/05/01 05:18:13;;;;;;;;;;;9.00;99.90;;;;;;4917248;28;20031;-80
2022/05/01 05:20:44;;;;;;;11.77;7.75;;;9.00;99.90;;;;;;4908814;28;20286;-77
2022/05/01 05:23:17;;;;;;;11.20;8.43;;;9.10;99.90;;;;;;4900773;28;20039;-80
2022/05/01 05:25:44;;;;;;;13.02;9.02;;;9.10;99.90;;;;;;4909197;28;20039;-79
2022/05/01 05:28:18;;;;;;;14.93;8.50;;;9.20;99.90;;;;;;4930704;28;20129;-80
2022/05/01 05:30:46;;;;;;;13.63;10.73;;;9.30;99.90;;;;;;4912998;28;20039;-79
2022/05/01 05:33:18;;;;;;;12.30;9.45;;;9.30;99.90;;;;;;4947591;28;20494;-85
2022/05/01 05:35:46;;;;;;;10.73;8.73;;;9.40;99.90;;;;;;4933142;28;20039;-85
2022/05/01 05:38:24;;;;;;;11.88;8.52;;;9.40;99.90;;;;;;4932131;28;20027;-85
2022/05/01 05:40:52;;;;;;;10.77;8.57;;;9.50;99.90;;;;;;4940875;28;20050;-83
2022/05/01 05:43:18;;;;;;;10.00;7.78;;;9.60;99.90;;;;;;4927593;28;20047;-78
2022/05/01 05:45:46;;;;;;;11.65;9.25;;;9.60;99.90;;;;;;4938362;28;20479;-80
2022/05/01 05:48:13;;;;;;;11.45;8.88;;;9.70;99.90;;;;;;4927667;28;21287;-81
2022/05/01 05:50:41;;;;;;;9.77;8.05;;;9.70;99.90;;;;;;4928782;28;20129;-79
2022/05/01 05:53:09;;;;;;;15.02;10.52;;;9.80;99.90;;;;;;4947184;28;20039;-81
2022/05/01 05:55:36;;;;;;;11.68;9.73;;;9.90;99.90;;;;;;4919509;28;20043;-78
2022/05/01 05:58:10;;;;;;;11.25;8.68;;;9.90;99.90;;;;;;4930101;28;20073;-81
2022/05/01 06:00:46;;;;;;;12.13;8.33;;;10.00;99.90;;;;;;4937103;28;20031;-77
2022/05/01 06:03:12;;;;;;;11.23;9.30;;;10.10;99.90;;;;;;4929877;28;20800;-78
2022/05/01 06:05:40;;;;;;;9.43;8.02;;;10.20;99.90;;;;;;4896580;28;20043;-76
2022/05/01 06:08:08;;;;;;;9.65;8.52;;;10.30;99.90;;;;;;4941227;28;20042;-74
2022/05/01 06:10:34;;;;;;;10.80;8.20;;;10.40;99.90;;;;;;4936408;28;20039;-73
2022/05/01 06:13:01;;;;;;;12.43;9.80;;;10.50;99.90;;;;;;4936020;28;20034;-74
2022/05/01 06:15:33;;;;;;;10.50;8.32;;;10.70;99.90;;;;;;4920024;28;20027;-75
2022/05/01 06:18:01;;;;;;;12.30;8.77;;;10.80;99.90;;;;;;4935035;28;20035;-76
2022/05/01 06:20:27;;;;;;;12.30;9.00;;;10.90;99.90;;;;;;4937003;28;20044;-78
2022/05/01 06:22:54;;;;;;;9.77;8.40;;;11.00;99.90;;;;;;4925823;29;20042;-76
2022/05/01 06:25:20;;;;;;;14.98;10.40;;;11.10;99.90;;;;;;4907183;29;20039;-75
2022/05/01 06:27:47;;;;;;;12.32;10.20;;;11.20;99.90;;;;;;4909805;28;20391;-76
2022/05/01 06:30:13;;;;;;;12.52;9.90;;;11.30;99.90;;;;;;4934827;28;20070;-76
2022/05/01 06:32:41;;;;;;;10.50;8.63;;;11.30;99.90;;;;;;4921596;28;20047;-77
2022/05/01 06:35:08;;;;;;;10.52;8.75;;;11.40;99.90;;;;;;4927305;28;20036;-78
2022/05/01 06:37:36;;;;;;;17.27;10.73;;;11.50;99.90;;;;;;4927960;28;20031;-79
2022/05/01 06:40:03;;;;;;;16.63;11.93;;;11.50;99.90;;;;;;4908530;28;20951;-77
2022/05/01 06:42:31;;;;;;;12.90;10.00;;;11.50;99.90;;;;;;4911110;28;20038;-78
2022/05/01 06:44:58;;;;;;;10.25;9.18;;;11.50;99.90;;;;;;4913233;28;20039;-78
2022/05/01 06:47:24;;;;;;;11.95;10.75;;;11.50;99.90;;;;;;4912783;28;20451;-79
2022/05/01 06:49:51;;;;;;;11.35;8.82;;;11.60;99.90;;;;;;4943250;28;20229;-79
2022/05/01 06:52:23;;;;;;;10.98;8.82;;;11.60;99.90;;;;;;4913619;28;20580;-78
2022/05/01 06:54:51;;;;;;;9.77;8.77;;;11.70;99.90;;;;;;4929902;28;20044;-77
2022/05/01 06:57:17;;;;;;;12.00;9.18;;;11.80;99.90;;;;;;4910409;28;20051;-78
2022/05/01 06:59:44;;;;;;;9.68;8.68;;;11.90;99.90;;;;;;4931335;28;20042;-78
2022/05/01 07:02:10;;;;;;;10.65;8.07;;;12.00;99.90;;;;;;4917187;28;20472;-78
2022/05/01 07:04:37;;;;;;;8.65;7.75;;;12.00;99.90;;;;;;4903335;28;20034;-78
2022/05/01 07:07:03;;;;;;;12.90;9.45;;;12.20;99.90;;;;;;4915681;28;22772;-78
2022/05/01 07:09:29;;;;;;;10.80;8.45;;;12.20;99.90;;;;;;4914562;28;20364;-78
2022/05/01 07:11:56;;;;;;;10.02;8.48;;;12.30;99.90;;;;;;4912213;28;20035;-79
2022/05/01 07:14:23;;;;;;;9.32;8.07;;;12.40;99.90;;;;;;4933686;28;20054;-77
2022/05/01 07:16:49;;;;;;;10.05;8.95;;;12.50;99.90;;;;;;4950769;28;20382;-78
2022/05/01 07:19:16;;;;;;;12.55;9.25;;;12.60;99.90;;;;;;4928858;29;20051;-78
2022/05/01 07:21:42;;;;;;;11.98;10.73;;;12.60;99.90;;;;;;4929894;28;20032;-78
2022/05/01 07:24:09;;;;;;;10.48;8.98;;;12.60;99.90;;;;;;4933554;28;20026;-75
2022/05/01 07:26:38;;;;;;;10.60;8.60;;;12.60;99.90;;;;;;4925333;28;20036;-75
2022/05/01 07:29:05;;;;;;;9.52;7.90;;;12.60;99.90;;;;;;4925797;28;20494;-76
2022/05/01 07:31:31;;;;;;;12.98;9.25;;;12.70;99.90;;;;;;4936327;28;20035;-78
2022/05/01 07:33:57;;;;;;;11.25;9.60;;;12.80;99.90;;;;;;4906970;29;21032;-78
2022/05/01 07:36:24;;;;;;;10.57;8.35;;;12.90;99.90;;;;;;4918669;29;20031;-75
2022/05/01 07:38:57;;;;;;;10.13;8.88;;;13.00;99.90;;;;;;4923717;29;20047;-78
2022/05/01 07:41:24;;;;;;;10.05;7.85;;;13.10;99.90;;;;;;4933291;28;20035;-77
2022/05/01 07:43:51;;;;;;;11.25;8.95;;;13.20;99.90;;;;;;4940809;28;20054;-77
2022/05/01 07:46:18;;;;;;;12.05;8.80;;;13.40;99.90;;;;;;4924258;29;20050;-76
2022/05/01 07:48:48;;;;;;;10.68;8.13;;;13.60;99.90;;;;;;4922368;28;20028;-76
2022/05/01 07:51:16;;;;;;;10.88;8.25;;;13.70;99.90;;;;;;4907235;28;20039;-76
2022/05/01 07:53:43;;;;;;;10.57;9.45;;;13.90;99.90;;;;;;4925573;28;20027;-76
2022/05/01 07:56:10;;;;;;;11.82;8.23;;;14.00;99.90;;;;;;4937043;28;20615;-74
2022/05/01 07:58:37;;;;;;;9.02;7.72;;;14.10;99.90;;;;;;4938583;28;20046;-76
2022/05/01 08:01:04;;;;;;;9.02;7.40;;;14.20;99.90;;;;;;4906124;28;20047;-75
2022/05/01 08:06:15;;;;;;;8.25;6.95;;;14.30;99.90;;;;;;4937509;28;20019;-74
2022/05/01 08:08:45;;;;;;;11.52;9.18;;;14.40;99.90;;;;;;4920577;28;20031;-75
2022/05/01 08:11:13;;;;;;;10.48;7.72;;;14.40;99.90;;;;;;4922712;28;20415;-75
2022/05/01 08:13:40;;;;;;;10.35;7.53;;;14.50;99.90;;;;;;4921918;28;20072;-75
2022/05/01 08:16:09;;;;;;;9.30;7.05;;;14.50;99.90;;;;;;4936992;28;20031;-74
2022/05/01 08:21:24;;;;;;;9.63;7.80;;;14.70;99.90;;;;;;4933420;28;20380;-75
2022/05/01 08:23:52;;;;;;;7.95;6.85;;;14.90;99.90;;;;;;4936007;28;20038;-76
2022/05/01 08:26:18;;;;;;;8.00;5.95;;;15.10;99.90;;;;;;4938006;28;20028;-76
2022/05/01 08:28:45;;;;;;;10.40;7.40;;;15.30;99.60;;;;;;4907097;28;20040;-75
2022/05/01 08:31:13;;;;;;;15.25;8.55;;;15.40;99.20;;;;;;4919122;28;20031;-75
2022/05/01 08:33:40;;;;;;;8.15;7.20;;;15.60;98.40;;;;;;4938938;28;20031;-77
2022/05/01 08:36:06;;;;;;;10.25;8.23;;;15.70;97.70;;;;;;4903984;28;20039;-75
2022/05/01 08:38:37;;;;;;;9.68;7.20;;;15.70;97.20;;;;;;4938483;28;20024;-76
2022/05/01 08:41:05;;;;;;;8.60;7.65;;;15.80;96.90;;;;;;4923795;28;20459;-77
2022/05/01 08:43:35;;;;;;;7.75;6.65;;;15.90;95.80;;;;;;4926603;28;20046;-76
2022/05/01 08:46:07;;;;;;;9.23;6.90;;;16.00;95.70;;;;;;4941194;28;20036;-75
2022/05/01 08:49:04;;;;;;;10.00;6.43;;;16.10;95.00;;;;;;4939329;28;20049;-78
2022/05/01 08:51:33;;;;;;;7.97;5.97;;;16.30;95.00;;;;;;4932589;28;20050;-76
2022/05/01 08:54:07;;;;;;;7.78;6.97;;;16.50;94.40;;;;;;4916280;28;20127;-73
2022/05/01 08:56:35;;;;;;;7.55;6.10;;;16.70;94.20;;;;;;4935758;28;20051;-74
2022/05/01 08:59:04;;;;;;;8.05;7.05;;;16.70;93.70;;;;;;4901174;29;20098;-74
2022/05/01 09:01:33;;;;;;;12.65;7.85;;;16.80;93.20;;;;;;4900002;29;20012;-74
2022/05/01 09:04:00;;;;;;;7.55;6.78;;;16.80;92.30;;;;;;4919848;29;20028;-77
2022/05/01 09:06:40;;;;;;;7.35;5.90;;;16.60;91.80;;;;;;4921474;29;20044;-75
2022/05/01 09:09:17;;;;;;;7.72;6.22;;;16.50;91.70;;;;;;4923097;29;20032;-76
2022/05/01 09:14:49;;;;;;;9.77;6.38;;;16.40;91.10;;;;;;4894287;29;20365;-75
2022/05/01 09:17:23;;;;;;;6.30;5.72;;;16.10;91.10;;;;;;4896233;29;20037;-88
2022/05/01 09:20:05;;;;;;;8.48;6.22;;;16.10;91.20;;;;;;4923298;29;20032;-78
2022/05/01 09:22:49;;;;;;;10.27;7.88;;;16.10;91.30;;;;;;4906171;29;20024;-82
2022/05/01 09:25:18;;;;;;;9.18;7.60;;;16.20;91.00;;;;;;4887060;29;20023;-80
2022/05/01 09:27:44;;;;;;;8.90;7.75;;;16.10;90.90;;;;;;4877084;29;20032;-82
2022/05/01 09:30:25;;;;;;;9.07;6.65;;;15.90;90.30;;;;;;4888798;29;20023;-85
2022/05/01 09:32:54;;;;;;;8.27;6.43;;;15.70;90.80;;;;;;4894472;29;20035;-76
2022/05/01 09:35:35;;;;;;;9.15;6.88;;;15.70;91.10;;;;;;4904242;29;20039;-79
2022/05/01 09:38:17;;;;;;;7.82;6.25;;;15.60;91.10;;;;;;4907385;29;20387;-81
2022/05/01 09:40:45;;;;;;;15.15;7.25;;;15.60;91.10;;;;;;4903711;29;20028;-81
2022/05/01 09:43:34;;;;;;;11.43;6.95;;;15.60;90.80;;;;;;4875941;29;20035;-81
2022/05/01 09:46:11;;;;;;;6.90;5.40;;;15.60;90.70;;;;;;4903110;29;20020;-79
2022/05/01 09:49:03;;;;;;;10.00;6.63;;;15.60;90.70;;;;;;4887443;29;20043;-85
2022/05/01 09:51:38;;;;;;;9.55;5.22;;;15.60;90.50;;;;;;4889508;29;20020;-87
2022/05/01 09:54:06;;;;;;;8.50;5.80;;;15.60;90.50;;;;;;4886256;29;20047;-84
2022/05/01 09:57:01;;;;;;;11.57;9.70;;;15.70;90.50;;;;;;4877876;28;20031;-80
2022/05/01 09:59:29;;;;;;;12.25;10.30;;;15.70;90.50;;;;;;4938210;28;20066;-80
2022/05/01 10:02:03;;;;;;;15.48;13.18;;;15.60;90.20;;;;;;4921196;28;20518;-81
2022/05/01 10:04:34;;;;;;;11.38;8.65;;;15.50;90.20;;;;;;4925317;28;20050;-79
2022/05/01 10:07:01;;;;;;;12.48;9.68;;;15.50;90.10;;;;;;4911956;28;20054;-81
2022/05/01 10:09:29;;;;;;;13.80;10.45;;;15.40;90.00;;;;;;4911615;28;20043;-80
2022/05/01 10:11:58;;;;;;;19.63;13.48;;;15.30;90.00;;;;;;4913851;28;20039;-81
2022/05/01 10:14:28;;;;;;;11.75;8.32;;;15.20;89.60;;;;;;4912458;29;20032;-81
2022/05/01 10:16:56;;;;;;;12.02;6.72;;;15.20;89.40;;;;;;4899166;28;20027;-82
2022/05/01 10:19:23;;;;;;;10.73;9.35;;;15.30;89.20;;;;;;4909597;28;20495;-83
2022/05/01 10:22:29;;;;;;;7.22;6.28;;;15.30;88.00;;;;;;4923297;28;20058;-82
2022/05/01 10:25:22;;;;;;;5.60;4.75;;;15.40;88.20;;;;;;4873545;29;20036;-81
2022/05/01 10:28:53;;;;;;;32.80;21.60;;;15.50;87.40;;;;;;4910877;28;20047;-81
2022/05/01 10:32:21;;;;;;;11.40;9.63;;;15.60;86.20;;;;;;4907409;28;20478;-81
2022/05/01 10:35:03;;;;;;;6.32;5.65;;;15.70;86.10;;;;;;4908930;28;20057;-84
2022/05/01 10:37:50;;;;;;;7.32;5.75;;;15.90;85.60;;;;;;4938329;28;20024;-78
2022/05/01 10:40:24;;;;;;;27.95;21.00;;;15.90;85.30;;;;;;4918670;28;20031;-81
2022/05/01 10:42:53;;;;;;;10.88;8.77;;;16.00;85.10;;;;;;4924547;28;20375;-83
2022/05/01 10:45:23;;;;;;;16.45;12.68;;;16.20;84.70;;;;;;4890396;29;20044;-84
2022/05/01 10:47:58;;;;;;;14.68;9.23;;;16.40;84.50;;;;;;4915082;28;20042;-80
2022/05/01 10:51:30;;;;;;;13.98;11.15;;;16.70;84.00;;;;;;4920060;28;20043;-83
2022/05/01 10:54:19;;;;;;;12.70;8.93;;;17.00;82.40;;;;;;4929083;29;20391;-87
2022/05/01 10:56:50;;;;;;;9.25;6.53;;;17.20;81.10;;;;;;4910789;28;20035;-84
2022/05/01 10:59:42;;;;;;;7.47;5.00;;;17.30;80.00;;;;;;4899306;28;21066;-82
2022/05/01 11:02:29;;;;;;;5.90;4.55;;;17.50;78.90;;;;;;4924348;28;20035;-83
2022/05/01 11:04:59;;;;;;;7.15;4.45;;;17.60;76.80;;;;;;4944815;28;20027;-83
2022/05/01 11:07:29;;;;;;;5.70;4.15;;;17.70;76.50;;;;;;4943744;28;20514;-83
2022/05/01 11:10:00;;;;;;;4.97;4.22;;;17.70;75.10;;;;;;4923423;28;20035;-83
2022/05/01 11:12:33;;;;;;;7.53;4.50;;;17.70;73.70;;;;;;4942512;28;20043;-85
2022/05/01 11:15:25;;;;;;;5.70;4.15;;;17.70;72.70;;;;;;4946499;28;20494;-83
2022/05/01 11:18:01;;;;;;;5.32;4.13;;;17.70;72.60;;;;;;4943183;28;20027;-82
2022/05/01 11:20:30;;;;;;;6.15;3.80;;;17.70;72.00;;;;;;4908736;29;20047;-86
2022/05/01 11:23:44;;;;;;;8.85;4.55;;;17.70;71.20;;;;;;4925528;28;20047;-86
2022/05/01 11:26:24;;;;;;;7.15;4.03;;;17.80;70.00;;;;;;4892564;29;20469;-86
2022/05/01 11:29:13;;;;;;;6.38;3.60;;;18.00;70.00;;;;;;4928192;29;20047;-83
2022/05/01 11:32:15;;;;;;;5.93;3.63;;;18.40;69.90;;;;;;4923621;28;20040;-83
2022/05/01 11:34:54;;;;;;;4.65;3.95;;;18.90;69.40;;;;;;4928104;28;20019;-83
2022/05/01 11:37:26;;;;;;;5.50;3.55;;;19.40;68.50;;;;;;4940188;28;20044;-84
2022/05/01 11:40:32;;;;;;;3.63;3.30;;;19.80;67.10;;;;;;4923981;28;20073;-84
2022/05/01 11:43:20;;;;;;;3.88;3.55;;;19.90;65.70;;;;;;4909325;28;20387;-84
2022/05/01 11:45:48;;;;;;;5.18;3.97;;;19.90;65.80;;;;;;4952494;28;20744;-84
2022/05/01 11:48:18;;;;;;;7.05;4.15;;;19.90;65.10;;;;;;4917314;28;20403;-84
2022/05/01 11:51:04;;;;;;;4.07;3.25;;;20.10;64.10;;;;;;4943968;28;20038;-84
2022/05/01 11:53:37;;;;;;;;;;;20.10;63.20;;;;;;4895817;28;20038;-82
2022/05/01 12:04:36;;;;;;;5.10;3.80;;;20.50;60.60;;;;;;4936027;28;20023;-84
2022/05/01 12:07:14;;;;;;;4.53;4.13;;;20.40;60.50;;;;;;4898445;28;20036;-85
2022/05/01 12:09:43;;;;;;;5.13;3.78;;;20.40;60.00;;;;;;4926376;28;20480;-85
2022/05/01 12:12:16;;;;;;;4.00;3.03;;;20.60;60.00;;;;;;4930958;28;20375;-84
2022/05/01 12:14:50;;;;;;;4.97;3.85;;;20.90;60.00;;;;;;4914503;29;20035;-85
2022/05/01 12:17:24;;;;;;;4.90;4.25;;;21.20;59.10;;;;;;4944298;28;20034;-84
2022/05/01 12:20:00;;;;;;;5.95;4.28;;;21.40;58.70;;;;;;4941835;28;21918;-84
2022/05/01 12:22:37;;;;;;;4.85;3.75;;;21.60;58.30;;;;;;4929388;29;20039;-85
2022/05/01 12:25:10;;;;;;;5.80;4.00;;;21.80;58.00;;;;;;4915556;28;20533;-84
2022/05/01 12:27:42;;;;;;;6.70;3.17;;;22.00;57.60;;;;;;4933011;28;20027;-84
2022/05/01 12:30:10;;;;;;;4.38;3.97;;;22.00;57.40;;;;;;4907321;28;20372;-83
2022/05/01 12:32:53;;;;;;;6.20;4.40;;;22.20;57.00;;;;;;4928221;28;20043;-84
2022/05/01 12:35:26;;;;;;;4.97;4.45;;;22.30;56.20;;;;;;4927306;28;20061;-83
2022/05/01 12:37:52;;;;;;;4.97;4.47;;;22.30;54.60;;;;;;4925183;28;20047;-84
2022/05/01 12:46:45;;;;;;;7.13;5.10;;;21.40;53.60;;;;;;4936737;28;20058;-82
2022/05/01 12:49:24;;;;;;;7.35;5.82;;;20.70;54.30;;;;;;4944766;28;20046;-81
2022/05/01 12:51:54;;;;;;;9.60;6.78;;;20.30;55.10;;;;;;4914396;28;20046;-84
2022/05/01 12:54:20;;;;;;;7.05;5.50;;;20.00;55.20;;;;;;4927362;29;20035;-84
2022/05/01 12:56:48;;;;;;;13.27;10.60;;;19.80;55.90;;;;;;4909176;28;20411;-83
2022/05/01 12:59:34;;;;;;;9.35;6.35;;;19.60;56.00;;;;;;4943888;28;20044;-83
2022/05/01 13:02:01;;;;;;;5.38;3.83;;;19.50;56.90;;;;;;4910959;29;20042;-84
2022/05/01 13:04:43;;;;;;;6.25;3.83;;;19.40;57.00;;;;;;4942632;28;20031;-82
2022/05/01 13:07:42;;;;;;;5.90;4.53;;;19.40;56.80;;;;;;4924987;28;20055;-82
2022/05/01 13:10:20;;;;;;;5.30;4.13;;;19.30;57.30;;;;;;4918097;29;20043;-85
2022/05/01 13:12:58;;;;;;;3.53;3.00;;;19.30;57.80;;;;;;4903415;29;20063;-85
2022/05/01 13:15:46;;;;;;;6.18;4.82;;;19.40;58.10;;;;;;4917472;29;20474;-83
2022/05/01 13:18:26;;;;;;;5.47;4.78;;;19.50;58.00;;;;;;4909566;29;20431;-84
2022/05/01 13:20:54;;;;;;;5.03;4.25;;;19.70;57.80;;;;;;4888207;29;20055;-81
2022/05/01 13:23:21;;;;;;;4.50;3.38;;;19.80;57.90;;;;;;4858092;29;20060;-83
2022/05/01 13:25:47;;;;;;;6.47;4.60;;;19.90;57.70;;;;;;4838803;29;20048;-84
2022/05/01 13:28:14;;;;;;;6.45;5.22;;;20.00;57.60;;;;;;4839685;29;20044;-84
2022/05/01 13:30:40;;;;;;;6.45;4.28;;;20.40;57.00;;;;;;4842905;29;20049;-84
2022/05/01 13:33:06;;;;;;;4.53;4.13;;;20.40;55.80;;;;;;4888463;29;20381;-82
2022/05/01 13:35:33;;;;;;;5.03;4.13;;;20.30;55.30;;;;;;4871997;29;20045;-82
2022/05/01 13:37:59;;;;;;;16.83;13.82;;;20.20;55.60;;;;;;4870172;29;20071;-83
2022/05/01 13:45:56;;;;;;;6.97;5.05;;;20.40;54.60;;;;;;4872214;29;20539;-81
2022/05/01 13:48:22;;;;;;;6.28;3.72;;;20.80;54.80;;;;;;4874112;29;20142;-82
2022/05/01 13:50:49;;;;;;;15.80;12.07;;;21.80;53.80;;;;;;4840583;29;20045;-82
2022/05/01 13:53:15;;;;;;;9.70;7.63;;;22.20;52.70;;;;;;4878008;28;20036;-82
2022/05/01 13:55:42;;;;;;;7.57;6.07;;;21.90;52.40;;;;;;4897239;28;20027;-81
2022/05/01 13:58:09;;;;;;;6.43;5.50;;;21.50;52.00;;;;;;4910407;28;20047;-82